createdAt,value
2018-03-15T00:01:48.305Z,6.90
2018-03-15T00:04:16.404Z,6.80
2018-03-15T00:06:44.612Z,6.80
2018-03-15T00:09:12.107Z,6.70
2018-03-15T00:11:40.818Z,6.80
2018-03-15T00:14:08.272Z,6.80
2018-03-15T00:16:35.801Z,6.80
2018-03-15T00:19:03.299Z,6.80
2018-03-15T00:21:31.613Z,6.80
2018-03-15T00:23:59.558Z,6.80
2018-03-15T00:26:27.184Z,6.70
2018-03-15T00:28:55.293Z,6.80
2018-03-15T00:31:24.336Z,6.80
2018-03-15T00:33:53.303Z,6.70
2018-03-15T00:36:22.464Z,6.70
2018-03-15T00:38:50.728Z,6.70
2018-03-15T00:41:18.163Z,6.70
2018-03-15T00:43:46.069Z,6.70
2018-03-15T00:46:14.224Z,6.70
2018-03-15T00:48:42.448Z,6.70
2018-03-15T00:51:09.901Z,6.70
2018-03-15T00:53:37.352Z,6.60
2018-03-15T00:56:06.404Z,6.60
2018-03-15T00:58:34.963Z,6.60
2018-03-15T01:01:02.693Z,6.50
2018-03-15T01:03:30.160Z,6.50
2018-03-15T01:05:57.832Z,6.40
2018-03-15T01:08:25.287Z,6.40
2018-03-15T01:10:53.077Z,6.40
2018-03-15T01:13:20.527Z,6.40
2018-03-15T01:15:48.692Z,6.30
2018-03-15T01:18:16.173Z,6.30
2018-03-15T01:20:44.449Z,6.30
2018-03-15T01:23:11.894Z,6.20
2018-03-15T01:25:39.776Z,6.30
2018-03-15T01:28:07.993Z,6.20
2018-03-15T01:30:35.883Z,6.30
2018-03-15T01:33:03.654Z,6.30
2018-03-15T01:35:31.316Z,6.20
2018-03-15T01:37:58.753Z,6.30
2018-03-15T01:40:26.326Z,6.30
2018-03-15T01:42:54.014Z,6.30
2018-03-15T01:45:22.368Z,6.30
2018-03-15T01:47:49.803Z,6.30
2018-03-15T01:50:17.277Z,6.30
2018-03-15T01:52:44.713Z,6.30
2018-03-15T01:55:12.916Z,6.30
2018-03-15T01:57:40.352Z,6.30
2018-03-15T02:00:07.833Z,6.30
2018-03-15T02:02:35.299Z,6.30
2018-03-15T02:05:03.339Z,6.30
2018-03-15T02:07:30.805Z,6.30
2018-03-15T02:09:58.870Z,6.30
2018-03-15T02:12:26.328Z,6.30
2018-03-15T02:14:54.169Z,6.30
2018-03-15T02:17:21.963Z,6.30
2018-03-15T02:19:49.834Z,6.30
2018-03-15T02:22:17.308Z,6.30
2018-03-15T02:24:45.152Z,6.30
2018-03-15T02:27:12.597Z,6.30
2018-03-15T02:29:40.056Z,6.20
2018-03-15T02:32:07.577Z,6.20
2018-03-15T02:34:35.593Z,6.20
2018-03-15T02:37:03.072Z,6.20
2018-03-15T02:39:30.570Z,6.20
2018-03-15T02:41:58.272Z,6.20
2018-03-15T02:44:25.722Z,6.20
2018-03-15T02:46:53.590Z,6.30
2018-03-15T02:49:21.049Z,6.30
2018-03-15T02:51:48.508Z,6.30
2018-03-15T02:54:15.960Z,6.30
2018-03-15T02:56:43.930Z,6.30
2018-03-15T02:59:11.369Z,6.30
2018-03-15T03:01:38.915Z,6.20
2018-03-15T03:04:06.377Z,6.20
2018-03-15T03:06:34.278Z,6.20
2018-03-15T03:09:01.729Z,6.20
2018-03-15T03:11:29.468Z,6.20
2018-03-15T03:13:56.932Z,6.20
2018-03-15T03:16:24.817Z,6.10
2018-03-15T03:18:52.257Z,6.20
2018-03-15T03:21:19.941Z,6.10
2018-03-15T03:23:47.800Z,6.10
2018-03-15T03:26:15.825Z,6.10
2018-03-15T03:28:43.262Z,6.00
2018-03-15T03:31:10.841Z,6.00
2018-03-15T03:33:38.276Z,6.00
2018-03-15T03:36:06.216Z,6.00
2018-03-15T03:38:33.680Z,6.00
2018-03-15T03:41:01.299Z,6.00
2018-03-15T03:43:29.293Z,6.00
2018-03-15T03:45:57.065Z,6.00
2018-03-15T03:48:24.731Z,6.00
2018-03-15T03:50:52.387Z,6.00
2018-03-15T03:53:19.849Z,6.00
2018-03-15T03:55:47.708Z,5.90
2018-03-15T03:58:15.153Z,5.90
2018-03-15T04:00:42.622Z,5.90
2018-03-15T04:03:10.099Z,5.90
2018-03-15T04:05:38.248Z,5.80
2018-03-15T04:08:06.047Z,5.80
2018-03-15T04:10:34.626Z,5.80
2018-03-15T04:13:02.842Z,5.80
2018-03-15T04:15:30.729Z,5.80
2018-03-15T04:17:58.183Z,5.80
2018-03-15T04:20:25.685Z,5.80
2018-03-15T04:22:53.906Z,5.70
2018-03-15T04:25:21.600Z,5.70
2018-03-15T04:27:49.043Z,5.70
2018-03-15T04:30:16.574Z,5.70
2018-03-15T04:32:44.033Z,5.70
2018-03-15T04:35:12.026Z,5.70
2018-03-15T04:37:39.464Z,5.70
2018-03-15T04:40:06.937Z,5.70
2018-03-15T04:42:34.396Z,5.70
2018-03-15T04:45:01.900Z,5.70
2018-03-15T04:47:29.720Z,5.70
2018-03-15T04:49:57.150Z,5.70
2018-03-15T04:52:25.037Z,5.70
2018-03-15T04:54:52.507Z,5.70
2018-03-15T04:57:20.268Z,5.70
2018-03-15T04:59:47.715Z,5.70
2018-03-15T05:02:15.338Z,5.70
2018-03-15T05:04:42.780Z,5.70
2018-03-15T05:07:10.862Z,5.70
2018-03-15T05:09:38.312Z,5.60
2018-03-15T05:12:06.144Z,5.60
2018-03-15T05:14:33.893Z,5.60
2018-03-15T05:17:01.660Z,5.60
2018-03-15T05:19:29.109Z,5.60
2018-03-15T05:21:56.871Z,5.60
2018-03-15T05:24:24.524Z,5.60
2018-03-15T05:26:52.511Z,5.60
2018-03-15T05:29:19.985Z,5.60
2018-03-15T05:31:47.421Z,5.60
2018-03-15T05:34:14.884Z,5.60
2018-03-15T05:36:42.664Z,5.60
2018-03-15T05:39:10.902Z,5.60
2018-03-15T05:41:38.348Z,5.60
2018-03-15T05:44:05.813Z,5.60
2018-03-15T05:46:33.256Z,5.50
2018-03-15T05:49:00.732Z,5.50
2018-03-15T05:51:28.183Z,5.40
2018-03-15T05:53:55.953Z,5.40
2018-03-15T05:56:23.650Z,5.40
2018-03-15T05:58:51.891Z,5.40
2018-03-15T06:01:19.336Z,5.40
2018-03-15T06:03:46.906Z,5.40
2018-03-15T06:06:14.917Z,5.40
2018-03-15T06:08:43.147Z,5.40
2018-03-15T06:11:11.022Z,5.40
2018-03-15T06:13:38.587Z,5.40
2018-03-15T06:16:06.029Z,5.40
2018-03-15T06:18:33.558Z,5.40
2018-03-15T06:21:01.038Z,5.50
2018-03-15T06:23:32.022Z,5.50
2018-03-15T06:26:00.678Z,5.50
2018-03-15T06:28:28.144Z,5.50
2018-03-15T06:30:55.579Z,5.50
2018-03-15T06:33:23.050Z,5.50
2018-03-15T06:35:50.833Z,5.60
2018-03-15T06:38:18.301Z,5.60
2018-03-15T06:40:46.546Z,5.60
2018-03-15T06:43:14.038Z,5.60
2018-03-15T06:45:42.244Z,5.60
2018-03-15T06:48:10.026Z,5.60
2018-03-15T06:50:37.478Z,5.60
2018-03-15T06:53:05.987Z,5.70
2018-03-15T06:55:33.712Z,5.70
2018-03-15T06:58:01.180Z,5.70
2018-03-15T07:00:28.668Z,5.70
2018-03-15T07:02:56.108Z,5.80
2018-03-15T07:05:23.615Z,5.80
2018-03-15T07:07:51.469Z,5.80
2018-03-15T07:10:20.019Z,5.90
2018-03-15T07:12:47.452Z,5.80
2018-03-15T07:15:14.931Z,5.90
2018-03-15T07:17:42.984Z,6.00
2018-03-15T07:20:10.546Z,6.00
2018-03-15T07:22:38.100Z,6.00
2018-03-15T07:25:05.976Z,6.10
2018-03-15T07:27:33.828Z,6.10
2018-03-15T07:30:01.279Z,6.10
2018-03-15T07:32:28.740Z,6.20
2018-03-15T07:34:56.537Z,6.20
2018-03-15T07:37:23.994Z,6.30
2018-03-15T07:39:51.838Z,6.30
2018-03-15T07:42:19.410Z,6.40
2018-03-15T07:44:46.867Z,6.50
2018-03-15T07:47:14.657Z,6.50
2018-03-15T07:49:43.025Z,6.60
2018-03-15T07:52:12.505Z,6.70
2018-03-15T07:54:39.967Z,6.70
2018-03-15T07:57:08.026Z,6.70
2018-03-15T07:59:35.470Z,6.80
2018-03-15T08:02:02.996Z,6.90
2018-03-15T08:04:31.172Z,7.00
2018-03-15T08:06:59.092Z,7.00
2018-03-15T08:09:27.305Z,7.10
2018-03-15T08:11:55.229Z,7.10
2018-03-15T08:14:22.704Z,7.20
2018-03-15T08:16:51.050Z,7.30
2018-03-15T08:19:18.530Z,7.30
2018-03-15T08:21:45.975Z,7.40
2018-03-15T08:24:13.811Z,7.50
2018-03-15T08:26:41.530Z,7.50
2018-03-15T08:29:09.780Z,7.60
2018-03-15T08:31:37.270Z,7.60
2018-03-15T08:34:05.560Z,7.80
2018-03-15T08:36:33.746Z,7.80
2018-03-15T08:39:01.221Z,7.90
2018-03-15T08:41:28.680Z,7.90
2018-03-15T08:43:56.211Z,8.00
2018-03-15T08:46:23.660Z,8.00
2018-03-15T08:48:51.436Z,8.10
2018-03-15T08:51:18.888Z,8.20
2018-03-15T08:53:46.693Z,8.30
2018-03-15T08:56:14.563Z,8.40
2018-03-15T08:58:42.028Z,8.50
2018-03-15T09:01:09.483Z,8.50
2018-03-15T09:03:36.951Z,8.60
2018-03-15T09:06:04.396Z,8.70
2018-03-15T09:08:32.316Z,8.70
2018-03-15T09:11:00.162Z,8.80
2018-03-15T09:13:28.397Z,9.00
2018-03-15T09:15:55.847Z,9.00
2018-03-15T09:18:23.328Z,9.00
2018-03-15T09:20:50.774Z,9.10
2018-03-15T09:23:18.295Z,9.20
2018-03-15T09:25:46.079Z,9.20
2018-03-15T09:28:13.909Z,9.30
2018-03-15T09:30:41.349Z,9.30
2018-03-15T09:33:09.581Z,9.40
2018-03-15T09:35:37.372Z,9.40
2018-03-15T09:38:05.690Z,9.60
2018-03-15T09:40:33.140Z,9.60
2018-03-15T09:43:00.944Z,9.80
2018-03-15T09:45:28.722Z,9.80
2018-03-15T09:47:57.154Z,10.00
2018-03-15T09:50:25.637Z,10.00
2018-03-15T09:52:54.595Z,10.20
2018-03-15T09:55:22.987Z,10.30
2018-03-15T09:57:50.477Z,10.40
2018-03-15T10:00:18.993Z,10.40
2018-03-15T10:02:46.462Z,10.50
2018-03-15T10:05:14.688Z,10.50
2018-03-15T10:07:42.778Z,10.50
2018-03-15T10:10:10.820Z,10.60
2018-03-15T10:12:38.308Z,10.60
2018-03-15T10:15:05.797Z,10.70
2018-03-15T10:17:33.297Z,10.70
2018-03-15T10:20:00.748Z,10.80
2018-03-15T10:22:29.436Z,10.80
2018-03-15T10:24:57.251Z,10.90
2018-03-15T10:27:26.017Z,11.10
2018-03-15T10:29:53.906Z,11.00
2018-03-15T10:32:21.366Z,11.10
2018-03-15T10:34:55.725Z,11.30
2018-03-15T10:37:23.225Z,11.30
2018-03-15T10:39:50.684Z,11.40
2018-03-15T10:42:18.933Z,11.60
2018-03-15T10:44:46.383Z,11.60
2018-03-15T10:47:13.902Z,11.80
2018-03-15T10:49:41.516Z,11.90
2018-03-15T10:52:09.056Z,12.10
2018-03-15T10:54:36.734Z,12.20
2018-03-15T10:57:04.610Z,12.20
2018-03-15T10:59:32.091Z,12.30
2018-03-15T11:02:06.378Z,12.60
2018-03-15T11:04:33.900Z,12.50
2018-03-15T11:07:04.177Z,12.70
2018-03-15T11:09:32.026Z,12.80
2018-03-15T11:12:00.002Z,12.90
2018-03-15T11:14:27.470Z,12.90
2018-03-15T11:16:54.931Z,13.10
2018-03-15T11:19:23.160Z,13.30
2018-03-15T11:21:50.889Z,13.30
2018-03-15T11:24:18.702Z,13.40
2018-03-15T11:26:46.769Z,13.50
2018-03-15T11:29:14.260Z,13.50
2018-03-15T11:31:42.476Z,13.80
2018-03-15T11:34:10.065Z,13.80
2018-03-15T11:36:37.941Z,14.00
2018-03-15T11:39:05.415Z,14.10
2018-03-15T11:41:33.628Z,14.10
2018-03-15T11:44:01.097Z,14.10
2018-03-15T11:46:28.988Z,14.20
2018-03-15T11:48:56.486Z,14.20
2018-03-15T11:51:24.786Z,14.50
2018-03-15T11:53:52.292Z,14.50
2018-03-15T11:56:20.049Z,14.70
2018-03-15T11:58:47.521Z,14.80
2018-03-15T12:01:14.960Z,14.90
2018-03-15T12:03:42.466Z,15.00
2018-03-15T12:06:09.921Z,15.10
2018-03-15T12:08:37.936Z,15.20
2018-03-15T12:11:05.858Z,15.30
2018-03-15T12:13:35.822Z,15.30
2018-03-15T12:16:03.276Z,15.40
2018-03-15T12:18:30.830Z,15.50
2018-03-15T12:20:58.605Z,15.60
2018-03-15T12:23:26.077Z,15.70
2018-03-15T12:25:54.033Z,15.80
2018-03-15T12:28:21.897Z,15.80
2018-03-15T12:30:49.372Z,15.80
2018-03-15T12:33:16.922Z,15.80
2018-03-15T12:35:45.525Z,15.90
2018-03-15T12:38:13.825Z,15.90
2018-03-15T12:40:41.328Z,15.90
2018-03-15T12:43:08.784Z,15.90
2018-03-15T12:45:36.270Z,16.00
2018-03-15T12:48:04.480Z,16.10
2018-03-15T12:50:31.957Z,16.10
2018-03-15T12:52:59.598Z,16.20
2018-03-15T12:55:27.420Z,16.40
2018-03-15T12:57:54.940Z,16.50
2018-03-15T13:00:22.393Z,16.60
2018-03-15T13:02:49.974Z,16.70
2018-03-15T13:05:17.418Z,16.80
2018-03-15T13:07:44.973Z,16.70
2018-03-15T13:10:12.827Z,16.70
2018-03-15T13:12:40.629Z,16.70
2018-03-15T13:15:08.081Z,16.60
2018-03-15T13:17:37.066Z,16.40
2018-03-15T13:20:04.650Z,16.40
2018-03-15T13:22:32.889Z,16.20
2018-03-15T13:25:00.625Z,16.20
2018-03-15T13:27:28.529Z,16.10
2018-03-15T13:29:55.966Z,16.00
2018-03-15T13:32:23.513Z,16.00
2018-03-15T13:34:51.508Z,15.90
2018-03-15T13:37:18.989Z,15.90
2018-03-15T13:39:46.440Z,15.90
2018-03-15T13:42:13.923Z,15.80
2018-03-15T13:44:42.132Z,15.70
2018-03-15T13:47:09.647Z,15.70
2018-03-15T13:49:37.887Z,15.60
2018-03-15T13:52:05.365Z,15.60
2018-03-15T13:54:33.665Z,15.50
2018-03-15T13:57:01.589Z,15.50
2018-03-15T13:59:29.051Z,15.50
2018-03-15T14:01:56.520Z,15.40
2018-03-15T14:04:24.394Z,15.30
2018-03-15T14:06:53.059Z,15.20
2018-03-15T14:09:21.013Z,15.20
2018-03-15T14:11:49.013Z,15.10
2018-03-15T14:14:16.745Z,15.10
2018-03-15T14:16:44.205Z,15.10
2018-03-15T14:19:11.690Z,15.10
2018-03-15T14:21:39.913Z,15.20
2018-03-15T14:24:07.810Z,15.20
2018-03-15T14:26:35.273Z,15.30
2018-03-15T14:29:03.271Z,15.20
2018-03-15T14:31:31.496Z,15.20
2018-03-15T14:33:58.954Z,15.20
2018-03-15T14:36:26.723Z,15.20
2018-03-15T14:38:54.236Z,15.10
2018-03-15T14:41:21.680Z,15.00
2018-03-15T14:43:49.932Z,14.80
2018-03-15T14:46:17.398Z,14.80
2018-03-15T14:48:45.632Z,14.70
2018-03-15T14:51:13.084Z,14.70
2018-03-15T14:53:40.620Z,14.70
2018-03-15T14:56:08.237Z,14.60
2018-03-15T14:58:36.696Z,14.40
2018-03-15T15:01:04.176Z,14.30
2018-03-15T15:03:31.838Z,14.20
2018-03-15T15:05:59.276Z,14.10
2018-03-15T15:08:26.761Z,14.10
2018-03-15T15:10:55.218Z,13.80
2018-03-15T15:13:22.670Z,13.80
2018-03-15T15:15:50.146Z,13.70
2018-03-15T15:18:17.624Z,13.60
2018-03-15T15:20:45.880Z,13.60
2018-03-15T15:23:13.304Z,13.50
2018-03-15T15:25:41.177Z,13.50
2018-03-15T15:28:09.142Z,13.30
2018-03-15T15:30:37.326Z,13.30
2018-03-15T15:33:04.852Z,13.30
2018-03-15T15:35:32.756Z,13.30
2018-03-15T15:38:00.236Z,13.30
2018-03-15T15:40:28.472Z,13.30
2018-03-15T15:42:55.948Z,13.30
2018-03-15T15:45:23.459Z,13.20
2018-03-15T15:47:50.925Z,13.20
2018-03-15T15:50:18.436Z,13.10
2018-03-15T15:52:47.015Z,13.00
2018-03-15T15:55:15.899Z,13.00
2018-03-15T15:57:44.289Z,12.90
2018-03-15T16:00:12.523Z,12.90
2018-03-15T16:02:40.002Z,12.90
2018-03-15T16:05:07.715Z,13.00
2018-03-15T16:07:35.186Z,12.90
2018-03-15T16:10:03.176Z,12.90
2018-03-15T16:12:30.664Z,12.80
2018-03-15T16:14:58.887Z,12.80
2018-03-15T16:17:26.376Z,12.70
2018-03-15T16:19:54.690Z,12.80
2018-03-15T16:22:22.195Z,12.80
2018-03-15T16:24:49.969Z,12.70
2018-03-15T16:27:17.486Z,12.70
2018-03-15T16:29:45.389Z,12.60
2018-03-15T16:32:12.893Z,12.50
2018-03-15T16:34:40.920Z,12.50
2018-03-15T16:37:08.429Z,12.50
2018-03-15T16:39:35.879Z,12.40
2018-03-15T16:42:03.386Z,12.40
2018-03-15T16:44:31.240Z,12.30
2018-03-15T16:46:58.928Z,12.30
2018-03-15T16:49:26.385Z,12.30
2018-03-15T16:51:53.861Z,12.20
2018-03-15T16:54:22.109Z,12.10
2018-03-15T16:56:49.927Z,12.10
2018-03-15T16:59:17.328Z,12.10
2018-03-15T17:01:44.936Z,12.10
2018-03-15T17:04:13.196Z,12.00
2018-03-15T17:06:41.539Z,12.00
2018-03-15T17:09:09.508Z,12.00
2018-03-15T17:11:37.387Z,12.00
2018-03-15T17:14:04.865Z,12.00
2018-03-15T17:16:33.116Z,12.00
2018-03-15T17:19:00.596Z,11.90
2018-03-15T17:21:28.126Z,11.90
2018-03-15T17:23:56.213Z,11.90
2018-03-15T17:26:23.654Z,11.90
2018-03-15T17:28:51.527Z,11.80
2018-03-15T17:31:18.972Z,11.80
2018-03-15T17:33:46.459Z,11.80
2018-03-15T17:36:15.227Z,11.80
2018-03-15T17:38:42.697Z,11.80
2018-03-15T17:41:10.914Z,11.80
2018-03-15T17:43:38.476Z,11.80
2018-03-15T17:46:05.928Z,11.80
2018-03-15T17:48:33.409Z,11.80
2018-03-15T17:51:00.941Z,11.80
2018-03-15T17:53:28.493Z,11.80
2018-03-15T17:55:56.205Z,11.80
2018-03-15T17:58:23.682Z,11.70
2018-03-15T18:00:51.909Z,11.70
2018-03-15T18:03:19.451Z,11.70
2018-03-15T18:05:46.890Z,11.70
2018-03-15T18:08:14.502Z,11.60
2018-03-15T18:10:42.575Z,11.60
2018-03-15T18:13:10.059Z,11.60
2018-03-15T18:15:38.294Z,11.50
2018-03-15T18:18:05.786Z,11.50
2018-03-15T18:20:33.237Z,11.50
2018-03-15T18:23:00.752Z,11.50
2018-03-15T18:25:28.635Z,11.50
2018-03-15T18:27:56.113Z,11.50
2018-03-15T18:30:24.090Z,11.50
2018-03-15T18:32:51.580Z,11.40
2018-03-15T18:35:19.437Z,11.40
2018-03-15T18:37:47.770Z,11.40
2018-03-15T18:40:15.287Z,11.40
2018-03-15T18:42:43.296Z,11.30
2018-03-15T18:45:10.769Z,11.30
2018-03-15T18:47:38.303Z,11.30
2018-03-15T18:50:05.761Z,11.20
2018-03-15T18:52:33.233Z,11.20
2018-03-15T18:55:00.761Z,11.20
2018-03-15T18:57:28.674Z,11.20
2018-03-15T18:59:56.941Z,11.10
2018-03-15T19:02:24.424Z,11.10
2018-03-15T19:04:51.917Z,11.10
2018-03-15T19:07:19.393Z,11.10
2018-03-15T19:09:48.402Z,11.10
2018-03-15T19:12:15.881Z,11.10
2018-03-15T19:14:44.134Z,11.10
2018-03-15T19:17:12.360Z,11.10
2018-03-15T19:19:39.802Z,11.10
2018-03-15T19:22:07.252Z,11.10
2018-03-15T19:24:35.080Z,11.00
2018-03-15T19:27:02.558Z,11.00
2018-03-15T19:29:31.413Z,11.00
2018-03-15T19:31:59.638Z,11.00
2018-03-15T19:34:28.647Z,11.00
2018-03-15T19:36:56.396Z,11.00
2018-03-15T19:39:23.912Z,11.00
2018-03-15T19:41:51.378Z,10.90
2018-03-15T19:44:18.974Z,10.90
2018-03-15T19:46:46.443Z,11.00
2018-03-15T19:49:13.949Z,11.00
2018-03-15T19:51:42.189Z,10.90
2018-03-15T19:54:09.820Z,10.90
2018-03-15T19:56:37.966Z,10.90
2018-03-15T19:59:05.593Z,10.90
2018-03-15T20:01:33.048Z,10.90
2018-03-15T20:04:01.132Z,10.90
2018-03-15T20:06:28.575Z,10.90
2018-03-15T20:08:56.026Z,10.90
2018-03-15T20:11:23.914Z,10.90
2018-03-15T20:13:51.386Z,10.90
2018-03-15T20:16:19.350Z,10.90
2018-03-15T20:18:46.808Z,10.90
2018-03-15T20:21:14.561Z,10.80
2018-03-15T20:23:47.976Z,10.90
2018-03-15T20:26:15.685Z,10.80
2018-03-15T20:28:46.299Z,10.80
2018-03-15T20:31:14.244Z,10.80
2018-03-15T20:33:48.195Z,10.80
2018-03-15T20:36:16.099Z,10.80
2018-03-15T20:38:43.549Z,10.80
2018-03-15T20:41:16.791Z,10.70
2018-03-15T20:43:44.407Z,10.70
2018-03-15T20:46:17.677Z,10.70
2018-03-15T20:48:51.315Z,10.70
2018-03-15T20:51:18.777Z,10.60
2018-03-15T20:53:47.361Z,10.90
2018-03-15T20:56:16.248Z,11.00
2018-03-15T20:58:44.506Z,11.00
2018-03-15T21:01:11.972Z,11.00
2018-03-15T21:03:39.488Z,11.00
2018-03-15T21:06:07.703Z,10.90
2018-03-15T21:08:35.151Z,10.80
2018-03-15T21:11:02.944Z,10.80
2018-03-15T21:13:31.218Z,10.60
2018-03-15T21:15:59.428Z,10.50
2018-03-15T21:18:26.935Z,10.50
2018-03-15T21:20:54.404Z,10.50
2018-03-15T21:23:22.712Z,10.30
2018-03-15T21:25:50.783Z,10.30
2018-03-15T21:28:18.281Z,10.30
2018-03-15T21:30:46.001Z,10.20
2018-03-15T21:33:13.465Z,10.20
2018-03-15T21:35:41.328Z,10.20
2018-03-15T21:38:09.128Z,10.20
2018-03-15T21:40:36.583Z,10.10
2018-03-15T21:43:04.059Z,10.10
2018-03-15T21:45:31.529Z,10.10
2018-03-15T21:47:59.861Z,10.00
2018-03-15T21:50:27.324Z,10.10
2018-03-15T21:52:54.844Z,10.00
2018-03-15T21:55:22.923Z,10.00
2018-03-15T21:57:50.393Z,10.00
2018-03-15T22:00:18.280Z,9.90
2018-03-15T22:02:45.835Z,9.90
2018-03-15T22:05:13.690Z,9.90
2018-03-15T22:07:41.238Z,9.90
2018-03-15T22:10:09.036Z,9.90
2018-03-15T22:12:36.832Z,9.80
2018-03-15T22:15:05.052Z,9.90
2018-03-15T22:17:32.518Z,9.90
2018-03-15T22:20:00.527Z,9.90
2018-03-15T22:22:28.800Z,9.90
2018-03-15T22:24:57.452Z,9.90
2018-03-15T22:27:24.964Z,9.80
2018-03-15T22:29:52.760Z,9.90
2018-03-15T22:32:20.570Z,9.80
2018-03-15T22:34:49.229Z,9.90
2018-03-15T22:37:16.711Z,9.90
2018-03-15T22:39:44.966Z,9.90
2018-03-15T22:42:12.411Z,9.90
2018-03-15T22:44:40.185Z,10.00
2018-03-15T22:47:07.652Z,10.10
2018-03-15T22:49:35.962Z,10.00
2018-03-15T22:52:03.390Z,10.00
2018-03-15T22:54:31.697Z,9.90
2018-03-15T22:56:59.572Z,9.90
2018-03-15T22:59:26.980Z,9.80
2018-03-15T23:01:54.485Z,9.80
2018-03-15T23:04:22.404Z,9.80
2018-03-15T23:06:50.157Z,9.80
2018-03-15T23:09:17.647Z,9.70
2018-03-15T23:11:46.332Z,9.70
2018-03-15T23:14:14.572Z,9.60
2018-03-15T23:16:42.509Z,9.60
2018-03-15T23:19:09.977Z,9.60
2018-03-15T23:21:37.429Z,9.60
2018-03-15T23:24:05.318Z,9.60
2018-03-15T23:26:32.853Z,9.60
2018-03-15T23:29:00.419Z,9.60
2018-03-15T23:31:28.428Z,9.50
2018-03-15T23:33:56.681Z,9.50
2018-03-15T23:36:24.648Z,9.50
2018-03-15T23:38:52.108Z,9.50
2018-03-15T23:41:19.560Z,9.50
2018-03-15T23:43:47.623Z,9.50
2018-03-15T23:46:15.524Z,9.50
2018-03-15T23:48:44.092Z,9.40
2018-03-15T23:51:11.740Z,9.40
2018-03-15T23:53:39.180Z,9.40
2018-03-15T23:56:06.627Z,9.40
2018-03-15T23:58:34.212Z,9.40
